.
WxDataArchive / Data Records for 2011-04-15
2011-04-14 April 2011 2011-04-16

Data Records for Friday, 15 April 2011

Time	Temp	Chill	HIndex	Humid	Dewpt	 Wind 	HiWind	WindDir	Rain 	Barom 
-----	----	-----	------	-----	-----	------	------	-------	-----	----- 
00:00	45.8	42.7	45.8	60	32.7	6	13	112	0.00	30.205 
00:05	45.7	43.9	45.7	61	33.0	4	16	112	0.00	30.205 
00:10	45.5	42.9	45.5	62	33.2	5	14	90	0.00	30.205 
00:15	45.4	45.4	45.4	63	33.6	3	7	90	0.00	30.203 
00:20	45.1	42.5	45.1	63	33.3	5	13	112	0.00	30.203 
00:25	44.9	44.9	44.9	63	33.1	3	10	112	0.00	30.203 
00:30	44.8	42.1	44.8	63	33.0	5	12	90	0.00	30.201 
00:35	44.6	41.9	44.6	63	32.8	5	11	112	0.00	30.201 
00:40	44.5	41.1	44.5	62	32.3	6	12	112	0.00	30.201 
00:45	44.3	42.3	44.3	61	31.7	4	11	112	0.00	30.204 
00:50	44.2	42.2	44.2	61	31.6	4	13	112	0.00	30.204 
00:55	44.1	41.3	44.1	61	31.5	5	12	90	0.00	30.204 
01:00	43.9	43.9	43.9	61	31.3	3	10	112	0.00	30.204 
01:05	43.8	43.8	43.8	61	31.2	3	12	90	0.00	30.204 
01:10	43.5	40.6	43.5	62	31.4	5	15	112	0.00	30.204 
01:15	43.3	39.7	43.3	62	31.2	6	13	90	0.00	30.195 
01:20	43.2	40.2	43.2	62	31.1	5	13	112	0.00	30.195 
01:25	43.1	40.9	43.1	62	31.0	4	11	90	0.00	30.195 
01:30	42.9	42.9	42.9	63	31.2	2	6	90	0.00	30.192 
01:35	42.6	42.6	42.6	64	31.3	2	11	90	0.00	30.192 
01:40	42.3	40.0	42.3	64	31.0	4	13	90	0.00	30.192 
01:45	42.2	42.2	42.2	64	30.9	3	9	112	0.00	30.188 
01:50	42.1	42.1	42.1	64	30.8	3	10	112	0.00	30.188 
01:55	41.8	41.8	41.8	64	30.5	3	13	90	0.00	30.188 
02:00	41.6	41.6	41.6	64	30.3	3	10	112	0.00	30.181 
02:05	41.5	39.1	41.5	64	30.2	4	13	112	0.00	30.181 
02:10	41.3	38.8	41.3	63	29.7	4	13	112	0.00	30.181 
02:15	41.2	38.7	41.2	63	29.6	4	12	112	0.00	30.179 
02:20	41.2	37.9	41.2	63	29.6	5	13	112	0.00	30.179 
02:25	41.1	38.6	41.1	63	29.5	4	11	90	0.00	30.179 
02:30	40.9	40.9	40.9	64	29.7	3	13	112	0.00	30.173 
02:35	40.8	40.8	40.8	65	30.0	3	7	112	0.00	30.173 
02:40	40.6	40.6	40.6	65	29.8	3	13	112	0.00	30.173 
02:45	40.5	40.5	40.5	65	29.7	3	7	90	0.00	30.164 
02:50	40.3	37.7	40.3	65	29.5	4	9	90	0.00	30.164 
02:55	40.1	40.1	40.1	65	29.3	3	7	90	0.00	30.164 
03:00	39.9	37.2	39.9	65	29.1	4	14	90	0.00	30.162 
03:05	39.8	39.8	39.8	65	29.0	3	14	112	0.00	30.162 
03:10	39.6	36.9	39.6	65	28.8	4	9	90	0.00	30.162 
03:15	39.6	39.6	39.6	65	28.8	2	10	45	0.00	30.160 
03:20	39.5	39.5	39.5	66	29.1	3	11	112	0.00	30.160 
03:25	39.3	39.3	39.3	66	28.9	3	13	112	0.00	30.160 
03:30	39.2	39.2	39.2	66	28.8	3	9	90	0.00	30.148 
03:35	39.1	35.4	39.1	66	28.7	5	14	112	0.00	30.148 
03:40	39.1	36.3	39.1	66	28.7	4	14	112	0.00	30.148 
03:45	38.9	38.9	38.9	67	28.9	3	9	112	0.00	30.146 
03:50	38.8	35.9	38.8	67	28.8	4	17	112	0.00	30.146 
03:55	38.8	38.8	38.8	67	28.8	3	12	112	0.00	30.146 
04:00	38.6	38.6	38.6	68	29.0	2	7	90	0.00	30.146 
04:05	38.5	35.6	38.5	69	29.2	4	9	90	0.00	30.146 
04:10	38.5	38.5	38.5	69	29.2	3	10	112	0.00	30.146 
04:15	38.3	35.4	38.3	69	29.0	4	9	90	0.00	30.146 
04:20	38.3	38.3	38.3	69	29.0	3	10	112	0.00	30.146 
04:25	38.3	38.3	38.3	69	29.0	3	10	90	0.00	30.146 
04:30	38.2	35.2	38.2	69	28.9	4	11	112	0.00	30.144 
04:35	38.0	38.0	38.0	69	28.7	3	12	90	0.00	30.144 
04:40	38.0	34.1	38.0	69	28.7	5	12	90	0.00	30.144 
04:45	37.9	34.9	37.9	70	29.0	4	9	112	0.00	30.139 
04:50	37.8	37.8	37.8	70	28.9	3	12	112	0.00	30.139 
04:55	37.8	34.8	37.8	71	29.3	4	12	112	0.00	30.139 
05:00	37.6	37.6	37.6	71	29.1	3	10	112	0.00	30.137 
05:05	37.6	37.6	37.6	72	29.4	3	9	112	0.00	30.137 
05:10	37.5	34.4	37.5	72	29.3	4	12	90	0.00	30.137 
05:15	37.5	34.4	37.5	72	29.3	4	11	90	0.00	30.145 
05:20	37.5	34.4	37.5	72	29.3	4	13	90	0.00	30.145 
05:25	37.3	37.3	37.3	73	29.5	3	8	90	0.00	30.145 
05:30	37.3	34.2	37.3	73	29.5	4	9	112	0.00	30.136 
05:35	37.2	37.2	37.2	73	29.4	3	10	112	0.00	30.136 
05:40	37.0	37.0	37.0	74	29.5	3	10	112	0.00	30.136 
05:45	37.0	37.0	37.0	74	29.5	3	7	112	0.00	30.127 
05:50	36.9	33.7	36.9	74	29.4	4	11	112	0.00	30.127 
05:55	36.9	33.7	36.9	75	29.7	4	10	90	0.00	30.127 
06:00	36.9	33.7	36.9	75	29.7	4	10	90	0.00	30.120 
06:05	36.9	36.9	36.9	75	29.7	3	12	68	0.00	30.120 
06:10	36.9	36.9	36.9	76	30.1	3	9	112	0.00	30.120 
06:15	36.9	36.9	36.9	76	30.1	2	7	112	0.00	30.116 
06:20	36.8	36.8	36.8	76	30.0	2	7	90	0.00	30.116 
06:25	36.8	36.8	36.8	76	30.0	3	8	112	0.00	30.116 
06:30	36.8	33.6	36.8	76	30.0	4	12	90	0.00	30.111 
06:35	36.9	36.9	36.9	76	30.1	3	8	90	0.00	30.111 
06:40	36.9	33.7	36.9	77	30.4	4	10	112	0.00	30.111 
06:45	36.9	36.9	36.9	77	30.4	3	7	112	0.00	30.112 
06:50	36.9	33.7	36.9	77	30.4	4	8	112	0.00	30.112 
06:55	36.9	36.9	36.9	77	30.4	2	7	90	0.00	30.112 
07:00	37.0	37.0	37.0	77	30.5	3	7	112	0.00	30.110 
07:05	37.0	37.0	37.0	77	30.5	3	12	112	0.00	30.110 
07:10	37.0	37.0	37.0	77	30.5	3	7	112	0.00	30.110 
07:15	37.2	33.2	37.2	77	30.7	5	10	90	0.00	30.111 
07:20	37.3	34.2	37.3	77	30.8	4	11	112	0.00	30.111 
07:25	37.3	37.3	37.3	77	30.8	3	8	112	0.00	30.111 
07:30	37.5	37.5	37.5	77	31.0	2	13	90	0.00	30.107 
07:35	37.8	33.9	37.8	77	31.2	5	13	90	0.00	30.107 
07:40	37.9	34.9	37.9	77	31.3	4	10	112	0.00	30.107 
07:45	38.2	35.2	38.2	76	31.3	4	10	112	0.00	30.097 
07:50	38.3	35.4	38.3	76	31.4	4	9	90	0.00	30.097 
07:55	38.8	35.9	38.8	75	31.6	4	15	90	0.00	30.097 
08:00	39.1	36.3	39.1	75	31.9	4	10	112	0.00	30.089 
08:05	39.3	39.3	39.3	74	31.7	3	12	90	0.00	30.089 
08:10	39.6	39.6	39.6	73	31.7	3	13	112	0.00	30.089 
08:15	40.1	35.9	40.1	73	32.2	6	16	112	0.00	30.082 
08:20	40.5	37.1	40.5	72	32.2	5	16	112	0.00	30.082 
08:25	41.1	37.8	41.1	71	32.4	5	13	112	0.00	30.082 
08:30	41.5	37.5	41.5	70	32.5	6	14	90	0.00	30.081 
08:35	41.8	39.4	41.8	70	32.7	4	10	112	0.00	30.081 
08:40	42.2	37.8	42.2	70	33.1	7	16	112	0.00	30.081 
08:45	42.5	38.7	42.5	70	33.4	6	17	112	0.00	30.078 
08:50	42.8	39.1	42.8	70	33.7	6	16	90	0.00	30.078 
08:55	43.1	38.9	43.1	69	33.6	7	19	112	0.00	30.078 
09:00	43.3	39.1	43.3	69	33.8	7	17	112	0.00	30.063 
09:05	43.5	39.4	43.5	69	34.0	7	15	112	0.00	30.063 
09:10	43.8	39.7	43.8	69	34.3	7	14	112	0.00	30.063 
09:15	44.1	41.3	44.1	69	34.6	5	13	112	0.00	30.056 
09:20	44.3	40.9	44.3	69	34.8	6	14	90	0.00	30.056 
09:25	44.6	40.7	44.6	69	35.1	7	17	112	0.00	30.056 
09:30	45.1	42.5	45.1	69	35.5	5	17	112	0.00	30.057 
09:35	45.5	41.3	45.5	67	35.2	8	15	112	0.00	30.057 
09:40	46.0	42.4	46.0	68	36.0	7	14	90	0.00	30.057 
09:45	46.7	43.7	46.7	66	36.0	6	15	112	0.00	30.059 
09:50	47.1	43.2	47.1	65	35.9	8	16	112	0.00	30.059 
09:55	47.6	44.3	47.6	64	36.0	7	14	112	0.00	30.059 
10:00	47.9	44.7	47.9	64	36.3	7	16	112	0.00	30.054 
10:05	48.5	46.5	48.5	63	36.5	5	16	112	0.00	30.054 
10:10	48.6	45.1	48.6	63	36.6	8	17	90	0.00	30.054 
10:15	48.5	44.5	48.5	63	36.5	9	20	112	0.00	30.047 
10:20	48.6	44.7	48.6	63	36.6	9	18	90	0.00	30.047 
10:25	49.2	46.7	49.2	63	37.1	6	19	90	0.00	30.047 
10:30	49.4	46.0	49.4	61	36.5	8	26	112	0.00	30.041 
10:35	49.4	45.6	49.4	62	36.9	9	18	112	0.00	30.041 
10:40	49.4	47.0	49.4	62	36.9	6	18	112	0.00	30.041 
10:45	49.4	46.0	49.4	62	36.9	8	17	112	0.00	30.043 
10:50	49.4	46.5	49.4	62	36.9	7	18	112	0.00	30.043 
10:55	49.6	46.7	49.6	61	36.7	7	18	90	0.00	30.043 
11:00	49.8	46.9	49.8	61	36.9	7	16	112	0.00	30.052 
11:05	49.9	46.6	49.9	60	36.6	8	16	90	0.00	30.052 
11:10	50.1	50.1	50.1	61	37.2	6	12	90	0.00	30.052 
11:15	50.4	50.4	50.4	61	37.5	5	12	112	0.00	30.045 
11:20	50.2	50.2	50.2	60	36.9	9	16	112	0.00	30.045 
11:25	50.5	50.5	50.5	59	36.7	7	15	90	0.00	30.045 
11:30	50.7	50.7	50.7	59	36.9	8	17	112	0.00	30.041 
11:35	50.5	50.5	50.5	60	37.1	8	17	90	0.00	30.041 
11:40	50.5	50.5	50.5	60	37.1	9	20	90	0.00	30.041 
11:45	50.7	50.7	50.7	60	37.3	8	20	90	0.00	30.033 
11:50	50.7	50.7	50.7	59	36.9	6	21	112	0.00	30.033 
11:55	51.0	51.0	51.0	58	36.7	9	18	112	0.00	30.033 
12:00	51.3	51.3	51.3	59	37.5	9	18	112	0.00	30.015 
12:05	51.4	51.4	51.4	60	38.0	8	17	112	0.00	30.015 
12:10	51.7	51.7	51.7	59	37.8	7	12	112	0.00	30.015 
12:15	51.4	51.4	51.4	58	37.1	10	20	112	0.00	30.006 
12:20	51.4	51.4	51.4	58	37.1	9	18	112	0.00	30.006 
12:25	51.4	51.4	51.4	58	37.1	10	18	112	0.00	30.006 
12:30	51.4	51.4	51.4	59	37.6	8	19	90	0.00	29.999 
12:35	51.9	51.9	51.9	59	38.0	8	15	112	0.00	29.999 
12:40	52.0	52.0	52.0	58	37.7	10	19	112	0.00	29.999 
12:45	52.0	52.0	52.0	58	37.7	8	15	112	0.00	29.986 
12:50	52.5	52.5	52.5	57	37.7	7	17	112	0.00	29.986 
12:55	52.2	52.2	52.2	58	37.9	8	18	112	0.00	29.986 
13:00	51.7	51.7	51.7	58	37.4	8	17	90	0.00	29.980 
13:05	51.4	51.4	51.4	58	37.1	9	18	112	0.00	29.980 
13:10	51.1	51.1	51.1	58	36.8	10	20	90	0.00	29.980 
13:15	51.3	51.3	51.3	59	37.5	10	16	90	0.00	29.976 
13:20	51.4	51.4	51.4	59	37.6	6	15	112	0.00	29.976 
13:25	51.1	51.1	51.1	59	37.3	9	20	112	0.00	29.976 
13:30	51.1	51.1	51.1	59	37.3	9	18	90	0.00	29.974 
13:35	51.0	51.0	51.0	59	37.2	11	19	112	0.00	29.974 
13:40	51.0	51.0	51.0	60	37.6	8	16	90	0.00	29.974 
13:45	51.1	51.1	51.1	60	37.7	9	18	112	0.00	29.966 
13:50	51.1	51.1	51.1	59	37.3	9	18	112	0.00	29.966 
13:55	51.9	51.9	51.9	59	38.0	8	17	112	0.00	29.966 
14:00	52.5	52.5	52.5	59	38.6	8	17	112	0.00	29.952 
14:05	52.2	52.2	52.2	58	37.9	10	20	112	0.00	29.952 
14:10	52.2	52.2	52.2	59	38.3	7	14	90	0.00	29.952 
14:15	52.2	52.2	52.2	59	38.3	6	17	112	0.00	29.949 
14:20	52.2	52.2	52.2	59	38.3	7	21	112	0.00	29.949 
14:25	52.0	52.0	52.0	60	38.5	8	17	112	0.00	29.949 
14:30	52.0	52.0	52.0	59	38.1	8	15	112	0.00	29.945 
14:35	51.6	51.6	51.6	59	37.7	8	18	112	0.00	29.945 
14:40	51.6	51.6	51.6	60	38.2	6	18	112	0.00	29.945 
14:45	51.6	51.6	51.6	60	38.2	7	27	112	0.00	29.934 
14:50	51.6	51.6	51.6	60	38.2	7	27	112	0.00	29.934 
14:55	51.3	51.3	51.3	60	37.9	9	18	112	0.00	29.934 
15:00	51.3	51.3	51.3	61	38.3	9	20	112	0.00	29.920 
15:05	51.1	51.1	51.1	61	38.1	8	17	90	0.00	29.920 
15:10	51.0	51.0	51.0	60	37.6	9	20	112	0.00	29.920 
15:15	50.8	50.8	50.8	61	37.8	9	17	112	0.00	29.905 
15:20	50.5	50.5	50.5	62	38.0	8	22	112	0.00	29.905 
15:25	50.5	50.5	50.5	62	38.0	7	16	112	0.00	29.905 
15:30	50.7	50.7	50.7	62	38.2	6	19	112	0.00	29.889 
15:35	50.4	50.4	50.4	62	37.9	8	19	112	0.00	29.889 
15:40	50.4	50.4	50.4	63	38.3	6	14	112	0.00	29.889 
15:45	50.4	50.4	50.4	62	37.9	8	20	112	0.00	29.876 
15:50	50.2	50.2	50.2	62	37.7	6	19	112	0.00	29.876 
15:55	49.9	47.1	49.9	62	37.4	7	17	112	0.00	29.876 
16:00	49.9	47.5	49.9	63	37.8	6	18	112	0.00	29.861 
16:05	49.6	47.2	49.6	63	37.5	6	15	90	0.00	29.861 
16:10	49.4	46.0	49.4	63	37.3	8	17	112	0.00	29.861 
16:15	49.2	45.4	49.2	63	37.1	9	15	112	0.00	29.866 
16:20	48.9	44.7	48.9	64	37.3	10	19	112	0.00	29.866 
16:25	48.9	46.4	48.9	64	37.3	6	17	90	0.00	29.866 
16:30	48.9	46.9	48.9	64	37.3	5	16	90	0.00	29.873 
16:35	48.8	46.8	48.8	65	37.6	5	14	112	0.00	29.873 
16:40	48.6	46.0	48.6	68	38.5	6	16	90	0.00	29.873 
16:45	48.2	46.1	48.2	69	38.5	5	15	112	0.00	29.861 
16:50	47.9	46.4	47.9	73	39.7	4	12	112	0.00	29.861 
16:55	47.6	47.6	47.6	73	39.4	3	12	0	0.00	29.861 
17:00	47.4	45.9	47.4	74	39.5	4	12	112	0.00	29.850 
17:05	47.4	45.9	47.4	73	39.2	4	11	112	0.00	29.850 
17:10	47.3	45.8	47.3	72	38.7	4	11	90	0.00	29.850 
17:15	47.1	44.2	47.1	71	38.2	6	15	112	0.00	29.842 
17:20	47.0	43.6	47.0	70	37.7	7	14	112	0.00	29.842 
17:25	47.0	47.0	47.0	72	38.4	3	10	90	0.00	29.842 
17:30	46.7	43.2	46.7	71	37.8	7	19	112	0.00	29.847 
17:35	46.4	43.4	46.4	72	37.9	6	15	90	0.00	29.847 
17:40	46.0	42.4	46.0	73	37.8	7	14	90	0.01	29.847 
17:45	45.7	43.2	45.7	75	38.2	5	10	90	0.00	29.880 
17:50	45.2	42.6	45.2	77	38.4	5	11	112	0.01	29.880 
17:55	44.9	42.2	44.9	78	38.5	5	12	112	0.00	29.880 
18:00	44.9	44.9	44.9	79	38.8	3	13	112	0.00	29.853 
18:05	44.8	42.1	44.8	80	39.0	5	11	90	0.00	29.853 
18:10	44.6	42.6	44.6	80	38.8	4	13	90	0.00	29.853 
18:15	44.5	44.5	44.5	81	39.0	3	11	135	0.00	29.842 
18:20	44.5	42.5	44.5	81	39.0	4	10	112	0.00	29.842 
18:25	44.3	42.3	44.3	80	38.5	4	12	90	0.00	29.842 
18:30	44.3	42.3	44.3	80	38.5	4	10	90	0.00	29.853 
18:35	44.2	42.2	44.2	81	38.7	4	10	90	0.00	29.853 
18:40	44.2	42.2	44.2	81	38.7	4	11	112	0.01	29.853 
18:45	44.1	42.1	44.1	83	39.3	4	12	112	0.00	29.844 
18:50	43.8	41.7	43.8	84	39.3	4	11	112	0.01	29.844 
18:55	43.5	40.6	43.5	84	39.0	5	13	112	0.00	29.844 
19:00	43.3	39.7	43.3	85	39.1	6	15	112	0.01	29.835 
19:05	43.1	40.1	43.1	86	39.2	5	11	90	0.00	29.835 
19:10	42.9	40.7	42.9	87	39.3	4	12	90	0.01	29.835 
19:15	42.8	40.6	42.8	87	39.2	4	12	90	0.01	29.818 
19:20	42.6	42.6	42.6	87	39.0	3	11	112	0.00	29.818 
19:25	42.6	40.3	42.6	87	39.0	4	10	90	0.01	29.818 
19:30	42.5	40.2	42.5	87	38.9	4	15	90	0.00	29.810 
19:35	42.3	39.2	42.3	87	38.7	5	12	112	0.01	29.810 
19:40	42.3	40.0	42.3	87	38.7	4	11	90	0.00	29.810 
19:45	42.2	39.1	42.2	88	38.9	5	13	90	0.00	29.798 
19:50	42.1	38.3	42.1	88	38.8	6	14	112	0.00	29.798 
19:55	42.1	39.7	42.1	88	38.8	4	10	90	0.01	29.798 
20:00	41.9	39.5	41.9	88	38.6	4	13	112	0.00	29.789 
20:05	41.9	39.5	41.9	88	38.6	4	12	90	0.00	29.789 
20:10	41.9	39.5	41.9	88	38.6	4	12	112	0.00	29.789 
20:15	41.9	38.0	41.9	88	38.6	6	14	90	0.00	29.779 
20:20	41.9	39.5	41.9	87	38.3	4	12	112	0.00	29.779 
20:25	42.1	38.3	42.1	87	38.5	6	13	112	0.00	29.779 
20:30	42.1	38.9	42.1	87	38.5	5	14	112	0.01	29.763 
20:35	41.9	39.5	41.9	88	38.6	4	12	112	0.00	29.763 
20:40	41.9	39.5	41.9	88	38.6	4	12	90	0.01	29.763 
20:45	41.8	38.6	41.8	88	38.5	5	12	90	0.00	29.742 
20:50	41.8	37.9	41.8	88	38.5	6	15	112	0.00	29.742 
20:55	41.9	38.0	41.9	88	38.6	6	14	112	0.00	29.742 
21:00	41.9	38.0	41.9	88	38.6	6	12	90	0.00	29.740 
21:05	41.9	38.7	41.9	88	38.6	5	13	90	0.00	29.740 
21:10	41.9	38.7	41.9	88	38.6	5	14	112	0.00	29.740 
21:15	42.1	38.9	42.1	87	38.5	5	16	90	0.00	29.716 
21:20	42.2	39.1	42.2	87	38.6	5	18	112	0.00	29.716 
21:25	42.2	38.4	42.2	87	38.6	6	15	112	0.00	29.716 
21:30	42.3	38.5	42.3	86	38.4	6	11	112	0.00	29.709 
21:35	42.3	39.2	42.3	86	38.4	5	14	112	0.00	29.709 
21:40	42.5	40.2	42.5	86	38.6	4	11	112	0.00	29.709 
21:45	42.6	38.9	42.6	86	38.7	6	14	90	0.00	29.701 
21:50	42.6	39.5	42.6	85	38.4	5	12	90	0.00	29.701 
21:55	42.8	40.6	42.8	86	38.9	4	10	112	0.00	29.701 
22:00	42.8	39.8	42.8	86	38.9	5	12	112	0.00	29.695 
22:05	42.9	40.7	42.9	86	39.0	4	13	112	0.00	29.695 
22:10	43.1	40.1	43.1	86	39.2	5	17	112	0.00	29.695 
22:15	43.1	40.9	43.1	86	39.2	4	11	112	0.00	29.688 
22:20	43.2	41.0	43.2	86	39.3	4	12	90	0.00	29.688 
22:25	43.3	41.1	43.3	86	39.4	4	10	112	0.00	29.688 
22:30	43.6	40.7	43.6	86	39.7	5	11	112	0.00	29.683 
22:35	43.8	41.7	43.8	85	39.6	4	10	112	0.00	29.683 
22:40	43.8	43.8	43.8	86	39.9	3	7	112	0.00	29.683 
22:45	43.9	43.9	43.9	86	40.0	3	6	112	0.00	29.679 
22:50	44.1	44.1	44.1	86	40.2	3	7	112	0.00	29.679 
22:55	44.2	44.2	44.2	86	40.3	3	7	112	0.00	29.679 
23:00	44.5	44.5	44.5	86	40.6	2	7	90	0.00	29.669 
23:05	44.6	44.6	44.6	86	40.7	3	7	112	0.00	29.669 
23:10	44.6	44.6	44.6	86	40.7	3	8	112	0.00	29.669 
23:15	44.8	44.8	44.8	87	41.2	3	12	90	0.00	29.653 
23:20	45.1	42.5	45.1	86	41.2	5	10	112	0.00	29.653 
23:25	45.2	42.6	45.2	86	41.3	5	11	90	0.00	29.653 
23:30	45.4	42.8	45.4	86	41.5	5	11	112	0.00	29.645 
23:35	45.5	43.7	45.5	86	41.6	4	7	90	0.00	29.645 
23:40	45.7	43.9	45.7	87	42.1	4	10	90	0.00	29.645 
23:45	46.0	44.2	46.0	87	42.4	4	7	112	0.00	29.629 
23:50	46.2	44.5	46.2	87	42.5	4	7	112	0.00	29.629 
23:55	46.5	44.1	46.5	87	42.8	5	10	112	0.00	29.629 

CoCoRaHS
IN-AL-39
A2 Web Hosting
Creative Commons License
GoDaddy
search engine by freefind advanced

loaded 2018-11-15 14:21:59 • last modified 2010-11-18 10:43:29
Privacy PolicyDisclaimer
• wx.awcolley.com is powered by PmWiki v.2002016 •
• all content (unless otherwise noted) © 2018 A W Colley